sensor_id;sensor_type;location;lat;lon;timestamp;P1;durP1;ratioP1;P2;durP2;ratioP2
19507;SDS011;40157;42.566;27.526;2022-12-18T00:00:57;6.37;;;3.73;;
19507;SDS011;40157;42.566;27.526;2022-12-18T00:02:58;6.03;;;3.87;;
19507;SDS011;40157;42.566;27.526;2022-12-18T00:04:58;5.90;;;3.80;;
19507;SDS011;40157;42.566;27.526;2022-12-18T00:06:59;6.27;;;3.90;;
19507;SDS011;40157;42.566;27.526;2022-12-18T00:09:00;8.27;;;3.93;;
19507;SDS011;40157;42.566;27.526;2022-12-18T00:11:08;5.87;;;3.63;;
19507;SDS011;40157;42.566;27.526;2022-12-18T00:13:11;5.17;;;3.73;;
19507;SDS011;40157;42.566;27.526;2022-12-18T00:15:12;7.70;;;4.17;;
19507;SDS011;40157;42.566;27.526;2022-12-18T00:17:12;9.97;;;4.13;;
19507;SDS011;40157;42.566;27.526;2022-12-18T00:19:13;5.50;;;3.63;;
19507;SDS011;40157;42.566;27.526;2022-12-18T00:21:15;4.93;;;3.23;;
19507;SDS011;40157;42.566;27.526;2022-12-18T00:23:15;7.23;;;3.03;;
19507;SDS011;40157;42.566;27.526;2022-12-18T00:25:15;4.53;;;2.50;;
19507;SDS011;40157;42.566;27.526;2022-12-18T00:27:16;4.80;;;3.17;;
19507;SDS011;40157;42.566;27.526;2022-12-18T00:29:16;6.33;;;3.60;;
19507;SDS011;40157;42.566;27.526;2022-12-18T00:31:18;7.10;;;3.50;;
19507;SDS011;40157;42.566;27.526;2022-12-18T00:33:21;6.43;;;3.83;;
19507;SDS011;40157;42.566;27.526;2022-12-18T00:35:21;6.63;;;3.80;;
19507;SDS011;40157;42.566;27.526;2022-12-18T00:37:22;4.50;;;3.23;;
19507;SDS011;40157;42.566;27.526;2022-12-18T00:39:22;7.10;;;3.87;;
19507;SDS011;40157;42.566;27.526;2022-12-18T00:41:23;8.93;;;4.13;;
19507;SDS011;40157;42.566;27.526;2022-12-18T00:43:43;5.97;;;4.03;;
19507;SDS011;40157;42.566;27.526;2022-12-18T00:45:43;4.70;;;3.60;;
19507;SDS011;40157;42.566;27.526;2022-12-18T00:47:44;4.80;;;3.20;;
19507;SDS011;40157;42.566;27.526;2022-12-18T00:49:45;4.43;;;2.33;;
19507;SDS011;40157;42.566;27.526;2022-12-18T00:51:45;3.90;;;2.27;;
19507;SDS011;40157;42.566;27.526;2022-12-18T00:53:46;2.97;;;2.23;;
19507;SDS011;40157;42.566;27.526;2022-12-18T00:55:46;5.03;;;2.47;;
19507;SDS011;40157;42.566;27.526;2022-12-18T00:57:47;3.37;;;2.37;;
19507;SDS011;40157;42.566;27.526;2022-12-18T00:59:47;3.87;;;2.70;;
19507;SDS011;40157;42.566;27.526;2022-12-18T01:01:48;7.60;;;3.30;;
19507;SDS011;40157;42.566;27.526;2022-12-18T01:03:48;4.87;;;3.33;;
19507;SDS011;40157;42.566;27.526;2022-12-18T01:05:49;6.03;;;3.00;;
19507;SDS011;40157;42.566;27.526;2022-12-18T01:07:49;8.43;;;3.93;;
19507;SDS011;40157;42.566;27.526;2022-12-18T01:09:49;5.73;;;3.40;;
19507;SDS011;40157;42.566;27.526;2022-12-18T01:11:50;8.27;;;3.83;;
19507;SDS011;40157;42.566;27.526;2022-12-18T01:13:51;5.80;;;3.90;;
19507;SDS011;40157;42.566;27.526;2022-12-18T01:15:52;7.60;;;3.57;;
19507;SDS011;40157;42.566;27.526;2022-12-18T01:17:53;7.57;;;4.37;;
19507;SDS011;40157;42.566;27.526;2022-12-18T01:19:54;7.83;;;3.93;;
19507;SDS011;40157;42.566;27.526;2022-12-18T01:21:54;5.60;;;3.83;;
19507;SDS011;40157;42.566;27.526;2022-12-18T01:23:55;4.93;;;3.43;;
19507;SDS011;40157;42.566;27.526;2022-12-18T01:25:56;6.17;;;3.70;;
19507;SDS011;40157;42.566;27.526;2022-12-18T01:27:58;7.50;;;4.43;;
19507;SDS011;40157;42.566;27.526;2022-12-18T01:29:58;7.53;;;4.03;;
19507;SDS011;40157;42.566;27.526;2022-12-18T01:31:59;8.87;;;4.77;;
19507;SDS011;40157;42.566;27.526;2022-12-18T01:34:03;8.73;;;5.00;;
19507;SDS011;40157;42.566;27.526;2022-12-18T01:36:04;8.17;;;4.10;;
19507;SDS011;40157;42.566;27.526;2022-12-18T01:38:05;7.53;;;5.10;;
19507;SDS011;40157;42.566;27.526;2022-12-18T01:40:05;9.27;;;5.53;;
19507;SDS011;40157;42.566;27.526;2022-12-18T01:42:13;8.10;;;5.07;;
19507;SDS011;40157;42.566;27.526;2022-12-18T01:46:52;9.93;;;6.07;;
19507;SDS011;40157;42.566;27.526;2022-12-18T01:48:58;10.17;;;6.57;;
19507;SDS011;40157;42.566;27.526;2022-12-18T01:51:01;12.23;;;6.50;;
19507;SDS011;40157;42.566;27.526;2022-12-18T01:53:04;11.43;;;6.20;;
19507;SDS011;40157;42.566;27.526;2022-12-18T01:55:08;11.73;;;6.23;;
19507;SDS011;40157;42.566;27.526;2022-12-18T01:57:09;14.00;;;6.27;;
19507;SDS011;40157;42.566;27.526;2022-12-18T01:59:10;6.07;;;3.97;;
19507;SDS011;40157;42.566;27.526;2022-12-18T02:01:11;6.87;;;4.10;;
19507;SDS011;40157;42.566;27.526;2022-12-18T02:03:12;8.33;;;4.97;;
19507;SDS011;40157;42.566;27.526;2022-12-18T02:05:14;6.87;;;5.00;;
19507;SDS011;40157;42.566;27.526;2022-12-18T02:09:26;7.37;;;3.43;;
19507;SDS011;40157;42.566;27.526;2022-12-18T02:16:17;4.33;;;2.10;;
19507;SDS011;40157;42.566;27.526;2022-12-18T02:18:30;3.63;;;2.03;;
19507;SDS011;40157;42.566;27.526;2022-12-18T02:25:40;2.50;;;1.70;;
19507;SDS011;40157;42.566;27.526;2022-12-18T02:28:02;3.10;;;1.90;;
19507;SDS011;40157;42.566;27.526;2022-12-18T02:30:06;4.37;;;1.80;;
19507;SDS011;40157;42.566;27.526;2022-12-18T02:32:10;2.60;;;1.90;;
19507;SDS011;40157;42.566;27.526;2022-12-18T02:34:14;5.73;;;1.80;;
19507;SDS011;40157;42.566;27.526;2022-12-18T02:36:17;2.40;;;1.60;;
19507;SDS011;40157;42.566;27.526;2022-12-18T02:38:20;4.50;;;1.80;;
19507;SDS011;40157;42.566;27.526;2022-12-18T02:40:22;2.50;;;1.63;;
19507;SDS011;40157;42.566;27.526;2022-12-18T02:42:24;3.00;;;1.93;;
19507;SDS011;40157;42.566;27.526;2022-12-18T02:44:25;3.13;;;1.50;;
19507;SDS011;40157;42.566;27.526;2022-12-18T02:46:33;2.50;;;1.73;;
19507;SDS011;40157;42.566;27.526;2022-12-18T02:48:37;2.47;;;1.87;;
19507;SDS011;40157;42.566;27.526;2022-12-18T02:50:40;3.20;;;2.00;;
19507;SDS011;40157;42.566;27.526;2022-12-18T02:55:26;4.90;;;1.97;;
19507;SDS011;40157;42.566;27.526;2022-12-18T02:57:50;2.57;;;1.70;;
19507;SDS011;40157;42.566;27.526;2022-12-18T02:59:55;2.63;;;1.70;;
19507;SDS011;40157;42.566;27.526;2022-12-18T03:01:58;2.50;;;1.53;;
19507;SDS011;40157;42.566;27.526;2022-12-18T03:04:13;2.43;;;1.57;;
19507;SDS011;40157;42.566;27.526;2022-12-18T03:06:23;3.27;;;1.90;;
19507;SDS011;40157;42.566;27.526;2022-12-18T03:08:39;5.07;;;2.00;;
19507;SDS011;40157;42.566;27.526;2022-12-18T03:11:06;2.23;;;1.40;;
19507;SDS011;40157;42.566;27.526;2022-12-18T03:13:08;2.93;;;1.93;;
19507;SDS011;40157;42.566;27.526;2022-12-18T03:15:13;2.60;;;1.90;;
19507;SDS011;40157;42.566;27.526;2022-12-18T03:17:19;3.30;;;1.50;;
19507;SDS011;40157;42.566;27.526;2022-12-18T03:19:24;2.63;;;1.77;;
19507;SDS011;40157;42.566;27.526;2022-12-18T03:21:47;2.37;;;1.83;;
19507;SDS011;40157;42.566;27.526;2022-12-18T03:23:51;2.53;;;1.70;;
19507;SDS011;40157;42.566;27.526;2022-12-18T03:25:54;3.30;;;1.80;;
19507;SDS011;40157;42.566;27.526;2022-12-18T03:27:59;2.97;;;1.90;;
19507;SDS011;40157;42.566;27.526;2022-12-18T03:30:05;2.00;;;1.80;;
19507;SDS011;40157;42.566;27.526;2022-12-18T03:32:12;4.80;;;1.90;;
19507;SDS011;40157;42.566;27.526;2022-12-18T03:34:23;3.43;;;2.10;;
19507;SDS011;40157;42.566;27.526;2022-12-18T03:36:29;3.37;;;2.00;;
19507;SDS011;40157;42.566;27.526;2022-12-18T03:38:30;2.50;;;2.10;;
19507;SDS011;40157;42.566;27.526;2022-12-18T03:43:08;3.43;;;1.53;;
19507;SDS011;40157;42.566;27.526;2022-12-18T03:47:34;3.40;;;2.10;;
19507;SDS011;40157;42.566;27.526;2022-12-18T03:54:23;2.60;;;2.07;;
19507;SDS011;40157;42.566;27.526;2022-12-18T03:56:28;4.00;;;2.60;;
19507;SDS011;40157;42.566;27.526;2022-12-18T03:58:31;3.67;;;2.50;;
19507;SDS011;40157;42.566;27.526;2022-12-18T04:00:34;3.17;;;2.23;;
19507;SDS011;40157;42.566;27.526;2022-12-18T04:02:35;3.33;;;2.30;;
19507;SDS011;40157;42.566;27.526;2022-12-18T04:04:39;2.93;;;2.00;;
19507;SDS011;40157;42.566;27.526;2022-12-18T04:06:40;4.47;;;2.60;;
19507;SDS011;40157;42.566;27.526;2022-12-18T04:08:42;3.77;;;2.27;;
19507;SDS011;40157;42.566;27.526;2022-12-18T04:10:44;3.30;;;2.17;;
19507;SDS011;40157;42.566;27.526;2022-12-18T04:12:44;2.87;;;1.90;;
19507;SDS011;40157;42.566;27.526;2022-12-18T04:14:45;3.93;;;2.57;;
19507;SDS011;40157;42.566;27.526;2022-12-18T04:16:45;4.23;;;2.80;;
19507;SDS011;40157;42.566;27.526;2022-12-18T04:18:46;5.57;;;3.13;;
19507;SDS011;40157;42.566;27.526;2022-12-18T04:20:46;3.73;;;2.77;;
19507;SDS011;40157;42.566;27.526;2022-12-18T04:22:46;3.87;;;2.50;;
19507;SDS011;40157;42.566;27.526;2022-12-18T04:24:47;4.53;;;3.00;;
19507;SDS011;40157;42.566;27.526;2022-12-18T04:26:47;8.77;;;4.40;;
19507;SDS011;40157;42.566;27.526;2022-12-18T04:28:48;11.80;;;5.73;;
19507;SDS011;40157;42.566;27.526;2022-12-18T04:30:48;12.20;;;6.20;;
19507;SDS011;40157;42.566;27.526;2022-12-18T04:32:49;25.23;;;11.23;;
19507;SDS011;40157;42.566;27.526;2022-12-18T04:34:49;19.57;;;9.97;;
19507;SDS011;40157;42.566;27.526;2022-12-18T04:36:50;12.20;;;6.10;;
19507;SDS011;40157;42.566;27.526;2022-12-18T04:38:51;11.70;;;6.40;;
19507;SDS011;40157;42.566;27.526;2022-12-18T04:40:51;18.53;;;11.10;;
19507;SDS011;40157;42.566;27.526;2022-12-18T04:42:52;11.67;;;7.03;;
19507;SDS011;40157;42.566;27.526;2022-12-18T04:44:52;7.87;;;5.03;;
19507;SDS011;40157;42.566;27.526;2022-12-18T04:46:52;6.47;;;4.47;;
19507;SDS011;40157;42.566;27.526;2022-12-18T04:48:53;7.17;;;4.50;;
19507;SDS011;40157;42.566;27.526;2022-12-18T04:50:53;7.07;;;4.90;;
19507;SDS011;40157;42.566;27.526;2022-12-18T04:52:54;6.73;;;3.93;;
19507;SDS011;40157;42.566;27.526;2022-12-18T04:54:54;8.33;;;3.83;;
19507;SDS011;40157;42.566;27.526;2022-12-18T04:56:54;5.33;;;2.73;;
19507;SDS011;40157;42.566;27.526;2022-12-18T04:58:55;4.17;;;2.60;;
19507;SDS011;40157;42.566;27.526;2022-12-18T05:00:55;19.23;;;11.43;;
19507;SDS011;40157;42.566;27.526;2022-12-18T05:02:56;18.83;;;11.37;;
19507;SDS011;40157;42.566;27.526;2022-12-18T05:04:56;10.83;;;6.90;;
19507;SDS011;40157;42.566;27.526;2022-12-18T05:06:57;9.37;;;3.60;;
19507;SDS011;40157;42.566;27.526;2022-12-18T05:08:57;6.03;;;2.50;;
19507;SDS011;40157;42.566;27.526;2022-12-18T05:11:08;5.17;;;3.60;;
19507;SDS011;40157;42.566;27.526;2022-12-18T05:13:10;7.10;;;4.30;;
19507;SDS011;40157;42.566;27.526;2022-12-18T05:15:10;8.60;;;4.83;;
19507;SDS011;40157;42.566;27.526;2022-12-18T05:17:11;7.63;;;4.20;;
19507;SDS011;40157;42.566;27.526;2022-12-18T05:19:12;4.50;;;2.73;;
19507;SDS011;40157;42.566;27.526;2022-12-18T05:21:12;2.87;;;2.27;;
19507;SDS011;40157;42.566;27.526;2022-12-18T05:23:13;3.30;;;1.80;;
19507;SDS011;40157;42.566;27.526;2022-12-18T05:25:13;2.10;;;1.47;;
19507;SDS011;40157;42.566;27.526;2022-12-18T05:27:14;31.57;;;14.07;;
19507;SDS011;40157;42.566;27.526;2022-12-18T05:29:14;38.23;;;16.20;;
19507;SDS011;40157;42.566;27.526;2022-12-18T05:31:15;14.87;;;7.47;;
19507;SDS011;40157;42.566;27.526;2022-12-18T05:33:16;6.70;;;3.10;;
19507;SDS011;40157;42.566;27.526;2022-12-18T05:35:17;4.50;;;2.40;;
19507;SDS011;40157;42.566;27.526;2022-12-18T05:37:17;4.00;;;2.30;;
19507;SDS011;40157;42.566;27.526;2022-12-18T05:39:18;3.57;;;2.23;;
19507;SDS011;40157;42.566;27.526;2022-12-18T05:41:18;5.90;;;1.97;;
19507;SDS011;40157;42.566;27.526;2022-12-18T05:43:19;2.97;;;2.10;;
19507;SDS011;40157;42.566;27.526;2022-12-18T05:45:21;3.30;;;2.30;;
19507;SDS011;40157;42.566;27.526;2022-12-18T05:47:22;3.43;;;2.20;;
19507;SDS011;40157;42.566;27.526;2022-12-18T05:49:22;2.90;;;2.27;;
19507;SDS011;40157;42.566;27.526;2022-12-18T05:51:23;4.80;;;2.73;;
19507;SDS011;40157;42.566;27.526;2022-12-18T05:53:23;4.20;;;2.40;;
19507;SDS011;40157;42.566;27.526;2022-12-18T05:55:24;4.07;;;2.37;;
19507;SDS011;40157;42.566;27.526;2022-12-18T05:57:24;4.57;;;2.87;;
19507;SDS011;40157;42.566;27.526;2022-12-18T05:59:25;8.47;;;3.03;;
19507;SDS011;40157;42.566;27.526;2022-12-18T06:01:25;4.00;;;2.70;;
19507;SDS011;40157;42.566;27.526;2022-12-18T06:03:26;4.97;;;2.57;;
19507;SDS011;40157;42.566;27.526;2022-12-18T06:05:27;5.83;;;2.97;;
19507;SDS011;40157;42.566;27.526;2022-12-18T06:07:27;5.40;;;3.37;;
19507;SDS011;40157;42.566;27.526;2022-12-18T06:09:28;8.87;;;3.83;;
19507;SDS011;40157;42.566;27.526;2022-12-18T06:11:29;10.10;;;4.57;;
19507;SDS011;40157;42.566;27.526;2022-12-18T06:13:29;5.93;;;3.20;;
19507;SDS011;40157;42.566;27.526;2022-12-18T06:15:30;5.30;;;3.03;;
19507;SDS011;40157;42.566;27.526;2022-12-18T06:17:31;7.70;;;2.80;;
19507;SDS011;40157;42.566;27.526;2022-12-18T06:19:32;4.90;;;2.63;;
19507;SDS011;40157;42.566;27.526;2022-12-18T06:21:32;6.83;;;3.53;;
19507;SDS011;40157;42.566;27.526;2022-12-18T06:23:33;7.83;;;3.70;;
19507;SDS011;40157;42.566;27.526;2022-12-18T06:25:36;10.13;;;3.13;;
19507;SDS011;40157;42.566;27.526;2022-12-18T06:27:38;8.20;;;3.90;;
19507;SDS011;40157;42.566;27.526;2022-12-18T06:29:39;7.20;;;3.97;;
19507;SDS011;40157;42.566;27.526;2022-12-18T06:31:40;8.03;;;4.10;;
19507;SDS011;40157;42.566;27.526;2022-12-18T06:33:40;11.43;;;4.03;;
19507;SDS011;40157;42.566;27.526;2022-12-18T06:35:41;9.33;;;3.93;;
19507;SDS011;40157;42.566;27.526;2022-12-18T06:37:41;7.30;;;4.10;;
19507;SDS011;40157;42.566;27.526;2022-12-18T06:39:43;10.17;;;4.17;;
19507;SDS011;40157;42.566;27.526;2022-12-18T06:41:43;9.43;;;4.93;;
19507;SDS011;40157;42.566;27.526;2022-12-18T06:43:44;6.43;;;3.93;;
19507;SDS011;40157;42.566;27.526;2022-12-18T06:45:45;9.47;;;4.80;;
19507;SDS011;40157;42.566;27.526;2022-12-18T06:47:49;9.73;;;4.13;;
19507;SDS011;40157;42.566;27.526;2022-12-18T06:49:50;12.57;;;5.10;;
19507;SDS011;40157;42.566;27.526;2022-12-18T06:51:50;9.90;;;4.80;;
19507;SDS011;40157;42.566;27.526;2022-12-18T06:53:51;9.30;;;4.67;;
19507;SDS011;40157;42.566;27.526;2022-12-18T06:55:51;7.23;;;4.33;;
19507;SDS011;40157;42.566;27.526;2022-12-18T06:57:52;12.33;;;5.87;;
19507;SDS011;40157;42.566;27.526;2022-12-18T06:59:52;13.40;;;5.93;;
19507;SDS011;40157;42.566;27.526;2022-12-18T07:01:53;15.10;;;5.63;;
19507;SDS011;40157;42.566;27.526;2022-12-18T07:03:54;11.33;;;5.83;;
19507;SDS011;40157;42.566;27.526;2022-12-18T07:05:55;16.93;;;6.30;;
19507;SDS011;40157;42.566;27.526;2022-12-18T07:07:56;12.43;;;6.37;;
19507;SDS011;40157;42.566;27.526;2022-12-18T07:09:56;12.80;;;5.80;;
19507;SDS011;40157;42.566;27.526;2022-12-18T07:11:57;12.47;;;6.20;;
19507;SDS011;40157;42.566;27.526;2022-12-18T07:13:57;10.53;;;5.70;;
19507;SDS011;40157;42.566;27.526;2022-12-18T07:16:11;14.13;;;6.87;;
19507;SDS011;40157;42.566;27.526;2022-12-18T07:18:16;14.63;;;7.00;;
19507;SDS011;40157;42.566;27.526;2022-12-18T07:20:16;13.40;;;6.13;;
19507;SDS011;40157;42.566;27.526;2022-12-18T07:22:16;12.70;;;5.77;;
19507;SDS011;40157;42.566;27.526;2022-12-18T07:24:17;10.90;;;5.57;;
19507;SDS011;40157;42.566;27.526;2022-12-18T07:26:18;18.23;;;6.07;;
19507;SDS011;40157;42.566;27.526;2022-12-18T07:28:20;10.13;;;5.73;;
19507;SDS011;40157;42.566;27.526;2022-12-18T07:30:21;12.27;;;6.30;;
19507;SDS011;40157;42.566;27.526;2022-12-18T07:32:21;9.67;;;5.47;;
19507;SDS011;40157;42.566;27.526;2022-12-18T07:34:22;10.90;;;5.97;;
19507;SDS011;40157;42.566;27.526;2022-12-18T07:36:22;12.47;;;6.00;;
19507;SDS011;40157;42.566;27.526;2022-12-18T07:38:23;10.93;;;5.30;;
19507;SDS011;40157;42.566;27.526;2022-12-18T07:40:23;9.53;;;5.73;;
19507;SDS011;40157;42.566;27.526;2022-12-18T07:42:24;14.17;;;7.23;;
19507;SDS011;40157;42.566;27.526;2022-12-18T07:44:33;10.83;;;6.37;;
19507;SDS011;40157;42.566;27.526;2022-12-18T07:46:33;11.20;;;6.70;;
19507;SDS011;40157;42.566;27.526;2022-12-18T07:48:34;12.10;;;6.30;;
19507;SDS011;40157;42.566;27.526;2022-12-18T07:50:34;11.60;;;6.33;;
19507;SDS011;40157;42.566;27.526;2022-12-18T07:52:38;11.77;;;6.00;;
19507;SDS011;40157;42.566;27.526;2022-12-18T07:54:41;13.83;;;6.20;;
19507;SDS011;40157;42.566;27.526;2022-12-18T07:56:42;12.50;;;6.33;;
19507;SDS011;40157;42.566;27.526;2022-12-18T07:58:42;16.60;;;6.07;;
19507;SDS011;40157;42.566;27.526;2022-12-18T08:00:44;14.40;;;6.47;;
19507;SDS011;40157;42.566;27.526;2022-12-18T08:02:44;12.50;;;6.40;;
19507;SDS011;40157;42.566;27.526;2022-12-18T08:04:45;15.57;;;6.57;;
19507;SDS011;40157;42.566;27.526;2022-12-18T08:06:45;14.80;;;6.37;;
19507;SDS011;40157;42.566;27.526;2022-12-18T08:08:46;17.73;;;6.60;;
19507;SDS011;40157;42.566;27.526;2022-12-18T08:10:46;13.50;;;6.77;;
19507;SDS011;40157;42.566;27.526;2022-12-18T08:12:50;16.10;;;7.27;;
19507;SDS011;40157;42.566;27.526;2022-12-18T08:14:51;12.67;;;6.43;;
19507;SDS011;40157;42.566;27.526;2022-12-18T08:16:51;15.37;;;6.93;;
19507;SDS011;40157;42.566;27.526;2022-12-18T08:18:52;13.00;;;6.73;;
19507;SDS011;40157;42.566;27.526;2022-12-18T08:20:54;11.10;;;6.40;;
19507;SDS011;40157;42.566;27.526;2022-12-18T08:22:55;15.70;;;6.80;;
19507;SDS011;40157;42.566;27.526;2022-12-18T08:24:57;14.60;;;7.13;;
19507;SDS011;40157;42.566;27.526;2022-12-18T08:26:58;15.80;;;7.87;;
19507;SDS011;40157;42.566;27.526;2022-12-18T08:28:59;14.27;;;6.30;;
19507;SDS011;40157;42.566;27.526;2022-12-18T08:31:00;16.00;;;7.70;;
19507;SDS011;40157;42.566;27.526;2022-12-18T08:33:00;13.50;;;7.10;;
19507;SDS011;40157;42.566;27.526;2022-12-18T08:35:01;15.67;;;8.07;;
19507;SDS011;40157;42.566;27.526;2022-12-18T08:37:01;18.53;;;7.90;;
19507;SDS011;40157;42.566;27.526;2022-12-18T08:39:02;15.20;;;7.20;;
19507;SDS011;40157;42.566;27.526;2022-12-18T08:41:04;15.63;;;7.30;;
19507;SDS011;40157;42.566;27.526;2022-12-18T08:43:07;14.40;;;7.17;;
19507;SDS011;40157;42.566;27.526;2022-12-18T08:45:27;12.93;;;6.97;;
19507;SDS011;40157;42.566;27.526;2022-12-18T08:47:28;13.80;;;7.33;;
19507;SDS011;40157;42.566;27.526;2022-12-18T08:49:28;14.67;;;7.57;;
19507;SDS011;40157;42.566;27.526;2022-12-18T08:51:29;12.20;;;6.87;;
19507;SDS011;40157;42.566;27.526;2022-12-18T08:53:29;14.20;;;6.97;;
19507;SDS011;40157;42.566;27.526;2022-12-18T08:55:30;16.87;;;8.13;;
19507;SDS011;40157;42.566;27.526;2022-12-18T08:57:30;15.63;;;7.63;;
19507;SDS011;40157;42.566;27.526;2022-12-18T08:59:31;15.57;;;7.60;;
19507;SDS011;40157;42.566;27.526;2022-12-18T09:01:31;16.03;;;7.57;;
19507;SDS011;40157;42.566;27.526;2022-12-18T09:03:32;17.03;;;7.63;;
19507;SDS011;40157;42.566;27.526;2022-12-18T09:05:33;15.17;;;8.23;;
19507;SDS011;40157;42.566;27.526;2022-12-18T09:07:33;18.00;;;8.07;;
19507;SDS011;40157;42.566;27.526;2022-12-18T09:09:34;15.93;;;7.60;;
19507;SDS011;40157;42.566;27.526;2022-12-18T09:11:35;18.50;;;7.80;;
19507;SDS011;40157;42.566;27.526;2022-12-18T09:13:37;16.40;;;7.50;;
19507;SDS011;40157;42.566;27.526;2022-12-18T09:15:41;18.10;;;7.97;;
19507;SDS011;40157;42.566;27.526;2022-12-18T09:17:42;16.20;;;7.90;;
19507;SDS011;40157;42.566;27.526;2022-12-18T09:19:43;17.07;;;7.77;;
19507;SDS011;40157;42.566;27.526;2022-12-18T09:21:43;13.07;;;7.43;;
19507;SDS011;40157;42.566;27.526;2022-12-18T09:23:48;17.33;;;8.20;;
19507;SDS011;40157;42.566;27.526;2022-12-18T09:25:49;16.53;;;7.37;;
19507;SDS011;40157;42.566;27.526;2022-12-18T09:27:49;14.17;;;7.37;;
19507;SDS011;40157;42.566;27.526;2022-12-18T09:29:50;14.63;;;7.50;;
19507;SDS011;40157;42.566;27.526;2022-12-18T09:31:50;14.00;;;7.33;;
19507;SDS011;40157;42.566;27.526;2022-12-18T09:33:51;18.23;;;8.63;;
19507;SDS011;40157;42.566;27.526;2022-12-18T09:35:51;17.00;;;7.77;;
19507;SDS011;40157;42.566;27.526;2022-12-18T09:37:52;14.80;;;7.97;;
19507;SDS011;40157;42.566;27.526;2022-12-18T09:39:53;19.33;;;8.53;;
19507;SDS011;40157;42.566;27.526;2022-12-18T09:41:54;15.93;;;7.60;;
19507;SDS011;40157;42.566;27.526;2022-12-18T09:43:58;15.67;;;7.73;;
19507;SDS011;40157;42.566;27.526;2022-12-18T09:46:27;14.90;;;7.33;;
19507;SDS011;40157;42.566;27.526;2022-12-18T09:49:05;17.53;;;8.03;;
19507;SDS011;40157;42.566;27.526;2022-12-18T09:51:00;19.17;;;7.97;;
19507;SDS011;40157;42.566;27.526;2022-12-18T09:53:06;18.97;;;7.87;;
19507;SDS011;40157;42.566;27.526;2022-12-18T09:57:31;15.40;;;7.73;;
19507;SDS011;40157;42.566;27.526;2022-12-18T09:59:36;20.73;;;9.07;;
19507;SDS011;40157;42.566;27.526;2022-12-18T10:01:39;15.10;;;8.13;;
19507;SDS011;40157;42.566;27.526;2022-12-18T10:03:40;22.40;;;8.87;;
19507;SDS011;40157;42.566;27.526;2022-12-18T10:07:53;20.30;;;9.37;;
19507;SDS011;40157;42.566;27.526;2022-12-18T10:10:01;17.13;;;8.70;;
19507;SDS011;40157;42.566;27.526;2022-12-18T10:14:30;18.33;;;8.40;;
19507;SDS011;40157;42.566;27.526;2022-12-18T10:21:16;15.00;;;7.33;;
19507;SDS011;40157;42.566;27.526;2022-12-18T10:26:08;21.33;;;9.23;;
19507;SDS011;40157;42.566;27.526;2022-12-18T10:28:12;18.97;;;8.97;;
19507;SDS011;40157;42.566;27.526;2022-12-18T10:30:15;23.00;;;10.27;;
19507;SDS011;40157;42.566;27.526;2022-12-18T10:32:18;24.10;;;9.50;;
19507;SDS011;40157;42.566;27.526;2022-12-18T10:34:24;23.17;;;9.37;;
19507;SDS011;40157;42.566;27.526;2022-12-18T10:36:25;17.50;;;8.90;;
19507;SDS011;40157;42.566;27.526;2022-12-18T10:38:26;21.23;;;9.80;;
19507;SDS011;40157;42.566;27.526;2022-12-18T10:40:28;21.80;;;9.63;;
19507;SDS011;40157;42.566;27.526;2022-12-18T10:42:29;19.57;;;9.37;;
19507;SDS011;40157;42.566;27.526;2022-12-18T10:44:30;21.47;;;9.43;;
19507;SDS011;40157;42.566;27.526;2022-12-18T10:46:30;22.97;;;10.03;;
19507;SDS011;40157;42.566;27.526;2022-12-18T10:48:31;18.93;;;9.63;;
19507;SDS011;40157;42.566;27.526;2022-12-18T10:50:36;20.90;;;9.60;;
19507;SDS011;40157;42.566;27.526;2022-12-18T10:52:37;23.40;;;10.13;;
19507;SDS011;40157;42.566;27.526;2022-12-18T10:54:38;20.23;;;9.33;;
19507;SDS011;40157;42.566;27.526;2022-12-18T10:56:39;19.87;;;9.10;;
19507;SDS011;40157;42.566;27.526;2022-12-18T10:58:39;21.93;;;9.77;;
19507;SDS011;40157;42.566;27.526;2022-12-18T11:00:40;21.50;;;10.50;;
19507;SDS011;40157;42.566;27.526;2022-12-18T11:02:41;22.83;;;10.07;;
19507;SDS011;40157;42.566;27.526;2022-12-18T11:04:49;22.10;;;9.87;;
19507;SDS011;40157;42.566;27.526;2022-12-18T11:09:21;22.03;;;10.07;;
19507;SDS011;40157;42.566;27.526;2022-12-18T11:11:24;20.70;;;10.23;;
19507;SDS011;40157;42.566;27.526;2022-12-18T11:13:26;20.43;;;10.33;;
19507;SDS011;40157;42.566;27.526;2022-12-18T11:15:29;24.63;;;10.00;;
19507;SDS011;40157;42.566;27.526;2022-12-18T11:17:31;20.67;;;10.07;;
19507;SDS011;40157;42.566;27.526;2022-12-18T11:19:37;19.93;;;9.93;;
19507;SDS011;40157;42.566;27.526;2022-12-18T11:21:40;25.83;;;10.57;;
19507;SDS011;40157;42.566;27.526;2022-12-18T11:23:49;22.87;;;10.47;;
19507;SDS011;40157;42.566;27.526;2022-12-18T11:25:52;18.50;;;10.07;;
19507;SDS011;40157;42.566;27.526;2022-12-18T11:27:59;20.87;;;10.73;;
19507;SDS011;40157;42.566;27.526;2022-12-18T11:32:34;22.80;;;10.43;;
19507;SDS011;40157;42.566;27.526;2022-12-18T11:34:37;21.73;;;10.23;;
19507;SDS011;40157;42.566;27.526;2022-12-18T11:36:41;26.60;;;10.27;;
19507;SDS011;40157;42.566;27.526;2022-12-18T11:38:43;20.53;;;9.87;;
19507;SDS011;40157;42.566;27.526;2022-12-18T11:40:45;20.77;;;10.53;;
19507;SDS011;40157;42.566;27.526;2022-12-18T11:42:53;21.13;;;9.83;;
19507;SDS011;40157;42.566;27.526;2022-12-18T11:47:35;17.70;;;8.80;;
19507;SDS011;40157;42.566;27.526;2022-12-18T11:49:38;20.57;;;10.17;;
19507;SDS011;40157;42.566;27.526;2022-12-18T11:52:26;22.87;;;10.17;;
19507;SDS011;40157;42.566;27.526;2022-12-18T11:54:04;19.50;;;9.93;;
19507;SDS011;40157;42.566;27.526;2022-12-18T11:56:35;22.90;;;10.53;;
19507;SDS011;40157;42.566;27.526;2022-12-18T12:00:39;22.90;;;10.00;;
19507;SDS011;40157;42.566;27.526;2022-12-18T12:16:54;22.90;;;11.00;;
19507;SDS011;40157;42.566;27.526;2022-12-18T12:27:01;23.37;;;10.90;;
19507;SDS011;40157;42.566;27.526;2022-12-18T12:36:40;24.03;;;11.70;;
19507;SDS011;40157;42.566;27.526;2022-12-18T12:38:57;24.03;;;11.63;;
19507;SDS011;40157;42.566;27.526;2022-12-18T12:41:06;30.47;;;12.33;;
19507;SDS011;40157;42.566;27.526;2022-12-18T12:43:42;27.53;;;10.93;;
19507;SDS011;40157;42.566;27.526;2022-12-18T12:48:00;23.77;;;10.67;;
19507;SDS011;40157;42.566;27.526;2022-12-18T12:50:03;23.97;;;11.43;;
19507;SDS011;40157;42.566;27.526;2022-12-18T12:52:12;22.73;;;10.77;;
19507;SDS011;40157;42.566;27.526;2022-12-18T12:54:21;23.37;;;11.03;;
19507;SDS011;40157;42.566;27.526;2022-12-18T12:56:27;22.90;;;10.63;;
19507;SDS011;40157;42.566;27.526;2022-12-18T13:00:59;25.53;;;11.67;;
19507;SDS011;40157;42.566;27.526;2022-12-18T13:03:12;28.80;;;12.63;;
19507;SDS011;40157;42.566;27.526;2022-12-18T13:05:48;23.07;;;11.00;;
19507;SDS011;40157;42.566;27.526;2022-12-18T13:07:58;24.60;;;11.20;;
19507;SDS011;40157;42.566;27.526;2022-12-18T13:12:22;26.90;;;12.67;;
19507;SDS011;40157;42.566;27.526;2022-12-18T13:14:41;26.17;;;11.97;;
19507;SDS011;40157;42.566;27.526;2022-12-18T13:16:41;28.40;;;12.27;;
19507;SDS011;40157;42.566;27.526;2022-12-18T13:18:48;28.30;;;12.33;;
19507;SDS011;40157;42.566;27.526;2022-12-18T13:23:01;23.63;;;11.60;;
19507;SDS011;40157;42.566;27.526;2022-12-18T13:25:32;26.33;;;12.50;;
19507;SDS011;40157;42.566;27.526;2022-12-18T13:29:44;24.87;;;12.23;;
19507;SDS011;40157;42.566;27.526;2022-12-18T13:33:46;27.13;;;12.03;;
19507;SDS011;40157;42.566;27.526;2022-12-18T13:37:51;26.77;;;12.50;;
19507;SDS011;40157;42.566;27.526;2022-12-18T13:39:52;25.27;;;11.70;;